sensor_id;sensor_type;location;lat;lon;timestamp;P1;durP1;ratioP1;P2;durP2;ratioP2
73359;SDS011;63092;43.582;19.528;2023-07-16T00:01:35;15.85;;;12.88;;
73359;SDS011;63092;43.582;19.528;2023-07-16T00:04:01;14.93;;;12.82;;
73359;SDS011;63092;43.582;19.528;2023-07-16T00:06:27;21.60;;;14.57;;
73359;SDS011;63092;43.582;19.528;2023-07-16T00:08:52;20.70;;;14.07;;
73359;SDS011;63092;43.582;19.528;2023-07-16T00:11:18;20.23;;;14.50;;
73359;SDS011;63092;43.582;19.528;2023-07-16T00:13:44;19.83;;;14.60;;
73359;SDS011;63092;43.582;19.528;2023-07-16T00:16:14;19.50;;;14.50;;
73359;SDS011;63092;43.582;19.528;2023-07-16T00:18:44;25.63;;;15.35;;
73359;SDS011;63092;43.582;19.528;2023-07-16T00:21:10;18.45;;;14.32;;
73359;SDS011;63092;43.582;19.528;2023-07-16T00:23:36;20.35;;;14.40;;
73359;SDS011;63092;43.582;19.528;2023-07-16T00:26:02;17.67;;;13.68;;
73359;SDS011;63092;43.582;19.528;2023-07-16T00:28:28;16.90;;;13.48;;
73359;SDS011;63092;43.582;19.528;2023-07-16T00:30:54;19.55;;;13.82;;
73359;SDS011;63092;43.582;19.528;2023-07-16T00:33:20;16.77;;;13.57;;
73359;SDS011;63092;43.582;19.528;2023-07-16T00:35:49;19.20;;;13.80;;
73359;SDS011;63092;43.582;19.528;2023-07-16T00:40:44;21.08;;;13.13;;
73359;SDS011;63092;43.582;19.528;2023-07-16T00:43:13;16.30;;;12.77;;
73359;SDS011;63092;43.582;19.528;2023-07-16T00:45:39;17.50;;;13.43;;
73359;SDS011;63092;43.582;19.528;2023-07-16T00:48:06;16.55;;;13.25;;
73359;SDS011;63092;43.582;19.528;2023-07-16T00:50:33;17.83;;;13.35;;
73359;SDS011;63092;43.582;19.528;2023-07-16T00:53:04;20.63;;;13.25;;
73359;SDS011;63092;43.582;19.528;2023-07-16T00:55:34;17.35;;;13.13;;
73359;SDS011;63092;43.582;19.528;2023-07-16T00:58:02;19.45;;;13.45;;
73359;SDS011;63092;43.582;19.528;2023-07-16T01:00:32;16.20;;;13.05;;
73359;SDS011;63092;43.582;19.528;2023-07-16T01:02:59;17.77;;;13.02;;
73359;SDS011;63092;43.582;19.528;2023-07-16T01:05:28;18.60;;;12.95;;
73359;SDS011;63092;43.582;19.528;2023-07-16T01:08:02;16.45;;;13.00;;
73359;SDS011;63092;43.582;19.528;2023-07-16T01:10:32;16.35;;;12.70;;
73359;SDS011;63092;43.582;19.528;2023-07-16T01:12:58;17.83;;;12.88;;
73359;SDS011;63092;43.582;19.528;2023-07-16T01:15:25;19.38;;;12.55;;
73359;SDS011;63092;43.582;19.528;2023-07-16T01:17:50;17.17;;;13.20;;
73359;SDS011;63092;43.582;19.528;2023-07-16T01:20:16;19.48;;;14.15;;
73359;SDS011;63092;43.582;19.528;2023-07-16T01:22:48;20.73;;;12.88;;
73359;SDS011;63092;43.582;19.528;2023-07-16T01:28:09;16.33;;;13.05;;
73359;SDS011;63092;43.582;19.528;2023-07-16T01:30:48;16.88;;;13.38;;
73359;SDS011;63092;43.582;19.528;2023-07-16T01:33:17;20.98;;;13.88;;
73359;SDS011;63092;43.582;19.528;2023-07-16T01:35:45;16.67;;;13.77;;
73359;SDS011;63092;43.582;19.528;2023-07-16T01:38:13;22.67;;;14.52;;
73359;SDS011;63092;43.582;19.528;2023-07-16T01:40:41;19.40;;;15.02;;
73359;SDS011;63092;43.582;19.528;2023-07-16T01:43:07;18.67;;;15.18;;
73359;SDS011;63092;43.582;19.528;2023-07-16T01:45:32;18.00;;;14.82;;
73359;SDS011;63092;43.582;19.528;2023-07-16T01:50:36;19.35;;;14.40;;
73359;SDS011;63092;43.582;19.528;2023-07-16T01:53:02;17.95;;;13.00;;
73359;SDS011;63092;43.582;19.528;2023-07-16T01:55:28;17.95;;;13.95;;
73359;SDS011;63092;43.582;19.528;2023-07-16T01:57:53;16.42;;;13.23;;
73359;SDS011;63092;43.582;19.528;2023-07-16T02:00:19;16.95;;;12.93;;
73359;SDS011;63092;43.582;19.528;2023-07-16T02:02:45;17.30;;;13.00;;
73359;SDS011;63092;43.582;19.528;2023-07-16T02:05:11;18.60;;;13.68;;
73359;SDS011;63092;43.582;19.528;2023-07-16T02:07:37;16.85;;;14.00;;
73359;SDS011;63092;43.582;19.528;2023-07-16T02:10:02;18.60;;;13.88;;
73359;SDS011;63092;43.582;19.528;2023-07-16T02:12:28;20.60;;;15.15;;
73359;SDS011;63092;43.582;19.528;2023-07-16T02:14:54;17.45;;;14.20;;
73359;SDS011;63092;43.582;19.528;2023-07-16T02:17:20;16.77;;;14.48;;
73359;SDS011;63092;43.582;19.528;2023-07-16T02:19:45;18.48;;;14.20;;
73359;SDS011;63092;43.582;19.528;2023-07-16T02:22:11;19.45;;;14.50;;
73359;SDS011;63092;43.582;19.528;2023-07-16T02:24:37;16.98;;;13.85;;
73359;SDS011;63092;43.582;19.528;2023-07-16T02:27:03;17.40;;;13.23;;
73359;SDS011;63092;43.582;19.528;2023-07-16T02:29:28;19.42;;;13.73;;
73359;SDS011;63092;43.582;19.528;2023-07-16T02:31:54;17.77;;;13.32;;
73359;SDS011;63092;43.582;19.528;2023-07-16T02:34:20;17.77;;;12.98;;
73359;SDS011;63092;43.582;19.528;2023-07-16T02:36:46;16.85;;;13.57;;
73359;SDS011;63092;43.582;19.528;2023-07-16T02:39:11;18.60;;;14.27;;
73359;SDS011;63092;43.582;19.528;2023-07-16T02:41:37;21.05;;;13.73;;
73359;SDS011;63092;43.582;19.528;2023-07-16T02:44:04;22.35;;;14.73;;
73359;SDS011;63092;43.582;19.528;2023-07-16T02:46:30;20.80;;;15.35;;
73359;SDS011;63092;43.582;19.528;2023-07-16T02:48:56;18.48;;;14.05;;
73359;SDS011;63092;43.582;19.528;2023-07-16T02:51:22;18.10;;;14.68;;
73359;SDS011;63092;43.582;19.528;2023-07-16T02:53:48;20.27;;;15.25;;
73359;SDS011;63092;43.582;19.528;2023-07-16T02:56:14;21.67;;;15.57;;
73359;SDS011;63092;43.582;19.528;2023-07-16T02:58:39;21.85;;;15.55;;
73359;SDS011;63092;43.582;19.528;2023-07-16T03:01:05;20.73;;;15.15;;
73359;SDS011;63092;43.582;19.528;2023-07-16T03:03:31;21.52;;;14.95;;
73359;SDS011;63092;43.582;19.528;2023-07-16T03:05:56;17.77;;;14.30;;
73359;SDS011;63092;43.582;19.528;2023-07-16T03:08:22;20.45;;;14.27;;
73359;SDS011;63092;43.582;19.528;2023-07-16T03:10:51;20.73;;;15.98;;
73359;SDS011;63092;43.582;19.528;2023-07-16T03:13:17;25.10;;;16.95;;
73359;SDS011;63092;43.582;19.528;2023-07-16T03:15:42;26.85;;;17.95;;
73359;SDS011;63092;43.582;19.528;2023-07-16T03:18:08;24.25;;;17.42;;
73359;SDS011;63092;43.582;19.528;2023-07-16T03:20:34;26.48;;;16.95;;
73359;SDS011;63092;43.582;19.528;2023-07-16T03:23:00;21.23;;;16.35;;
73359;SDS011;63092;43.582;19.528;2023-07-16T03:25:26;18.30;;;15.02;;
73359;SDS011;63092;43.582;19.528;2023-07-16T03:27:51;21.50;;;15.57;;
73359;SDS011;63092;43.582;19.528;2023-07-16T03:30:17;18.13;;;13.65;;
73359;SDS011;63092;43.582;19.528;2023-07-16T03:32:43;20.20;;;14.52;;
73359;SDS011;63092;43.582;19.528;2023-07-16T03:35:08;21.10;;;14.65;;
73359;SDS011;63092;43.582;19.528;2023-07-16T03:37:34;21.52;;;15.30;;
73359;SDS011;63092;43.582;19.528;2023-07-16T03:40:16;20.30;;;15.30;;
73359;SDS011;63092;43.582;19.528;2023-07-16T03:42:43;22.25;;;15.80;;
73359;SDS011;63092;43.582;19.528;2023-07-16T03:45:12;19.42;;;14.57;;
73359;SDS011;63092;43.582;19.528;2023-07-16T03:47:39;18.95;;;15.23;;
73359;SDS011;63092;43.582;19.528;2023-07-16T03:50:04;23.95;;;15.82;;
73359;SDS011;63092;43.582;19.528;2023-07-16T03:52:31;19.80;;;14.30;;
73359;SDS011;63092;43.582;19.528;2023-07-16T03:54:56;22.42;;;15.77;;
73359;SDS011;63092;43.582;19.528;2023-07-16T03:57:22;23.77;;;15.63;;
73359;SDS011;63092;43.582;19.528;2023-07-16T03:59:48;22.00;;;15.27;;
73359;SDS011;63092;43.582;19.528;2023-07-16T04:02:14;22.17;;;15.77;;
73359;SDS011;63092;43.582;19.528;2023-07-16T04:04:39;20.00;;;15.90;;
73359;SDS011;63092;43.582;19.528;2023-07-16T04:07:05;21.58;;;16.13;;
73359;SDS011;63092;43.582;19.528;2023-07-16T04:09:31;26.45;;;16.15;;
73359;SDS011;63092;43.582;19.528;2023-07-16T04:11:56;20.95;;;15.88;;
73359;SDS011;63092;43.582;19.528;2023-07-16T04:14:22;17.15;;;13.80;;
73359;SDS011;63092;43.582;19.528;2023-07-16T04:16:48;17.88;;;13.40;;
73359;SDS011;63092;43.582;19.528;2023-07-16T04:19:14;16.17;;;13.50;;
73359;SDS011;63092;43.582;19.528;2023-07-16T04:21:39;16.23;;;12.75;;
73359;SDS011;63092;43.582;19.528;2023-07-16T04:24:05;17.50;;;13.10;;
73359;SDS011;63092;43.582;19.528;2023-07-16T04:26:31;22.88;;;14.40;;
73359;SDS011;63092;43.582;19.528;2023-07-16T04:28:57;18.98;;;13.82;;
73359;SDS011;63092;43.582;19.528;2023-07-16T04:31:23;22.85;;;13.95;;
73359;SDS011;63092;43.582;19.528;2023-07-16T04:33:49;19.92;;;14.68;;
73359;SDS011;63092;43.582;19.528;2023-07-16T04:36:15;18.85;;;14.70;;
73359;SDS011;63092;43.582;19.528;2023-07-16T04:38:41;20.05;;;14.63;;
73359;SDS011;63092;43.582;19.528;2023-07-16T04:41:07;21.20;;;14.40;;
73359;SDS011;63092;43.582;19.528;2023-07-16T04:43:33;20.52;;;15.05;;
73359;SDS011;63092;43.582;19.528;2023-07-16T04:45:58;22.88;;;15.13;;
73359;SDS011;63092;43.582;19.528;2023-07-16T04:48:25;19.13;;;15.23;;
73359;SDS011;63092;43.582;19.528;2023-07-16T04:50:51;19.08;;;15.13;;
73359;SDS011;63092;43.582;19.528;2023-07-16T04:53:20;18.80;;;14.73;;
73359;SDS011;63092;43.582;19.528;2023-07-16T04:55:47;19.90;;;14.48;;
73359;SDS011;63092;43.582;19.528;2023-07-16T04:58:13;19.80;;;14.50;;
73359;SDS011;63092;43.582;19.528;2023-07-16T05:00:39;19.33;;;14.75;;
73359;SDS011;63092;43.582;19.528;2023-07-16T05:03:05;19.05;;;14.57;;
73359;SDS011;63092;43.582;19.528;2023-07-16T05:05:31;18.40;;;15.07;;
73359;SDS011;63092;43.582;19.528;2023-07-16T05:07:56;18.00;;;14.07;;
73359;SDS011;63092;43.582;19.528;2023-07-16T05:10:22;20.00;;;14.55;;
73359;SDS011;63092;43.582;19.528;2023-07-16T05:12:48;17.92;;;13.85;;
73359;SDS011;63092;43.582;19.528;2023-07-16T05:15:14;19.05;;;14.45;;
73359;SDS011;63092;43.582;19.528;2023-07-16T05:17:40;21.52;;;15.43;;
73359;SDS011;63092;43.582;19.528;2023-07-16T05:20:06;22.70;;;15.48;;
73359;SDS011;63092;43.582;19.528;2023-07-16T05:22:33;18.65;;;14.48;;
73359;SDS011;63092;43.582;19.528;2023-07-16T05:24:58;22.02;;;15.13;;
73359;SDS011;63092;43.582;19.528;2023-07-16T05:27:24;16.63;;;14.20;;
73359;SDS011;63092;43.582;19.528;2023-07-16T05:29:50;20.42;;;15.73;;
73359;SDS011;63092;43.582;19.528;2023-07-16T05:32:16;19.73;;;16.35;;
73359;SDS011;63092;43.582;19.528;2023-07-16T05:34:41;20.00;;;14.80;;
73359;SDS011;63092;43.582;19.528;2023-07-16T05:37:07;18.30;;;14.57;;
73359;SDS011;63092;43.582;19.528;2023-07-16T05:39:33;20.90;;;15.30;;
73359;SDS011;63092;43.582;19.528;2023-07-16T05:41:58;18.17;;;14.65;;
73359;SDS011;63092;43.582;19.528;2023-07-16T05:44:27;19.30;;;14.60;;
73359;SDS011;63092;43.582;19.528;2023-07-16T05:46:53;21.50;;;15.43;;
73359;SDS011;63092;43.582;19.528;2023-07-16T05:49:18;20.77;;;15.75;;
73359;SDS011;63092;43.582;19.528;2023-07-16T05:51:44;20.05;;;15.75;;
73359;SDS011;63092;43.582;19.528;2023-07-16T05:54:10;19.90;;;15.15;;
73359;SDS011;63092;43.582;19.528;2023-07-16T05:56:36;20.40;;;14.63;;
73359;SDS011;63092;43.582;19.528;2023-07-16T05:59:01;19.77;;;15.23;;
73359;SDS011;63092;43.582;19.528;2023-07-16T06:01:27;21.95;;;14.73;;
73359;SDS011;63092;43.582;19.528;2023-07-16T06:03:53;21.08;;;15.73;;
73359;SDS011;63092;43.582;19.528;2023-07-16T06:06:19;20.02;;;15.07;;
73359;SDS011;63092;43.582;19.528;2023-07-16T06:08:45;17.20;;;14.30;;
73359;SDS011;63092;43.582;19.528;2023-07-16T06:11:11;18.30;;;14.60;;
73359;SDS011;63092;43.582;19.528;2023-07-16T06:13:38;17.92;;;15.05;;
73359;SDS011;63092;43.582;19.528;2023-07-16T06:16:03;19.67;;;15.05;;
73359;SDS011;63092;43.582;19.528;2023-07-16T06:18:29;18.30;;;13.88;;
73359;SDS011;63092;43.582;19.528;2023-07-16T06:20:55;18.48;;;14.85;;
73359;SDS011;63092;43.582;19.528;2023-07-16T06:23:21;17.90;;;14.40;;
73359;SDS011;63092;43.582;19.528;2023-07-16T06:25:46;18.70;;;14.25;;
73359;SDS011;63092;43.582;19.528;2023-07-16T06:28:13;18.98;;;13.98;;
73359;SDS011;63092;43.582;19.528;2023-07-16T06:30:39;19.35;;;14.88;;
73359;SDS011;63092;43.582;19.528;2023-07-16T06:33:05;17.90;;;14.10;;
73359;SDS011;63092;43.582;19.528;2023-07-16T06:35:31;18.33;;;14.75;;
73359;SDS011;63092;43.582;19.528;2023-07-16T06:37:57;16.15;;;13.95;;
73359;SDS011;63092;43.582;19.528;2023-07-16T06:40:26;18.60;;;14.40;;
73359;SDS011;63092;43.582;19.528;2023-07-16T06:42:54;17.55;;;14.15;;
73359;SDS011;63092;43.582;19.528;2023-07-16T06:45:20;19.90;;;14.90;;
73359;SDS011;63092;43.582;19.528;2023-07-16T06:47:45;18.15;;;14.00;;
73359;SDS011;63092;43.582;19.528;2023-07-16T06:50:11;16.50;;;13.48;;
73359;SDS011;63092;43.582;19.528;2023-07-16T06:52:37;21.40;;;14.32;;
73359;SDS011;63092;43.582;19.528;2023-07-16T06:55:03;16.88;;;13.35;;
73359;SDS011;63092;43.582;19.528;2023-07-16T06:57:29;15.93;;;12.93;;
73359;SDS011;63092;43.582;19.528;2023-07-16T06:59:55;15.82;;;12.55;;
73359;SDS011;63092;43.582;19.528;2023-07-16T07:02:21;16.05;;;12.88;;
73359;SDS011;63092;43.582;19.528;2023-07-16T07:04:57;20.25;;;14.52;;
73359;SDS011;63092;43.582;19.528;2023-07-16T07:07:28;16.50;;;13.30;;
73359;SDS011;63092;43.582;19.528;2023-07-16T07:09:53;16.13;;;14.27;;
73359;SDS011;63092;43.582;19.528;2023-07-16T07:12:19;14.23;;;12.00;;
73359;SDS011;63092;43.582;19.528;2023-07-16T07:14:46;13.77;;;12.32;;
73359;SDS011;63092;43.582;19.528;2023-07-16T07:17:12;14.13;;;12.10;;
73359;SDS011;63092;43.582;19.528;2023-07-16T07:19:38;17.08;;;13.02;;
73359;SDS011;63092;43.582;19.528;2023-07-16T07:22:04;14.90;;;12.73;;
73359;SDS011;63092;43.582;19.528;2023-07-16T07:24:30;14.38;;;12.50;;
73359;SDS011;63092;43.582;19.528;2023-07-16T07:26:56;15.95;;;12.80;;
73359;SDS011;63092;43.582;19.528;2023-07-16T07:29:22;16.83;;;12.60;;
73359;SDS011;63092;43.582;19.528;2023-07-16T07:31:47;20.13;;;13.23;;
73359;SDS011;63092;43.582;19.528;2023-07-16T07:34:13;17.75;;;13.00;;
73359;SDS011;63092;43.582;19.528;2023-07-16T07:36:39;18.17;;;13.57;;
73359;SDS011;63092;43.582;19.528;2023-07-16T07:39:04;18.33;;;12.30;;
73359;SDS011;63092;43.582;19.528;2023-07-16T07:41:31;16.05;;;12.45;;
73359;SDS011;63092;43.582;19.528;2023-07-16T07:43:56;14.57;;;11.88;;
73359;SDS011;63092;43.582;19.528;2023-07-16T07:46:22;14.82;;;11.75;;
73359;SDS011;63092;43.582;19.528;2023-07-16T07:48:48;16.92;;;12.63;;
73359;SDS011;63092;43.582;19.528;2023-07-16T07:51:14;15.98;;;11.90;;
73359;SDS011;63092;43.582;19.528;2023-07-16T07:53:40;16.00;;;12.05;;
73359;SDS011;63092;43.582;19.528;2023-07-16T07:56:06;15.35;;;11.80;;
73359;SDS011;63092;43.582;19.528;2023-07-16T07:58:31;15.80;;;11.98;;
73359;SDS011;63092;43.582;19.528;2023-07-16T08:01:02;18.10;;;13.20;;
73359;SDS011;63092;43.582;19.528;2023-07-16T08:03:32;16.90;;;13.25;;
73359;SDS011;63092;43.582;19.528;2023-07-16T08:05:58;13.75;;;11.90;;
73359;SDS011;63092;43.582;19.528;2023-07-16T08:08:24;14.30;;;11.70;;
73359;SDS011;63092;43.582;19.528;2023-07-16T08:10:50;17.42;;;12.68;;
73359;SDS011;63092;43.582;19.528;2023-07-16T08:13:16;16.70;;;11.85;;
73359;SDS011;63092;43.582;19.528;2023-07-16T08:15:42;14.98;;;12.40;;
73359;SDS011;63092;43.582;19.528;2023-07-16T08:18:08;16.33;;;12.23;;
73359;SDS011;63092;43.582;19.528;2023-07-16T08:20:35;14.50;;;11.13;;
73359;SDS011;63092;43.582;19.528;2023-07-16T08:23:01;16.58;;;11.75;;
73359;SDS011;63092;43.582;19.528;2023-07-16T08:25:27;13.32;;;11.45;;
73359;SDS011;63092;43.582;19.528;2023-07-16T08:27:53;13.93;;;11.95;;
73359;SDS011;63092;43.582;19.528;2023-07-16T08:30:19;15.68;;;12.38;;
73359;SDS011;63092;43.582;19.528;2023-07-16T08:32:44;13.23;;;11.27;;
73359;SDS011;63092;43.582;19.528;2023-07-16T08:35:10;18.08;;;12.40;;
73359;SDS011;63092;43.582;19.528;2023-07-16T08:37:44;13.15;;;11.30;;
73359;SDS011;63092;43.582;19.528;2023-07-16T08:40:11;14.57;;;11.43;;
73359;SDS011;63092;43.582;19.528;2023-07-16T08:42:38;19.77;;;13.48;;
73359;SDS011;63092;43.582;19.528;2023-07-16T08:45:09;19.33;;;14.25;;
73359;SDS011;63092;43.582;19.528;2023-07-16T08:47:36;18.95;;;12.57;;
73359;SDS011;63092;43.582;19.528;2023-07-16T08:50:02;14.75;;;11.82;;
73359;SDS011;63092;43.582;19.528;2023-07-16T08:52:28;15.07;;;11.50;;
73359;SDS011;63092;43.582;19.528;2023-07-16T08:54:55;16.10;;;12.80;;
73359;SDS011;63092;43.582;19.528;2023-07-16T08:57:21;14.02;;;11.98;;
73359;SDS011;63092;43.582;19.528;2023-07-16T08:59:48;15.88;;;12.85;;
73359;SDS011;63092;43.582;19.528;2023-07-16T09:02:17;14.00;;;11.45;;
73359;SDS011;63092;43.582;19.528;2023-07-16T09:04:46;14.13;;;12.13;;
73359;SDS011;63092;43.582;19.528;2023-07-16T09:09:38;16.20;;;13.02;;
73359;SDS011;63092;43.582;19.528;2023-07-16T09:12:04;17.00;;;13.45;;
73359;SDS011;63092;43.582;19.528;2023-07-16T09:14:30;16.48;;;12.45;;
73359;SDS011;63092;43.582;19.528;2023-07-16T09:16:56;13.80;;;12.32;;
73359;SDS011;63092;43.582;19.528;2023-07-16T09:19:25;18.42;;;13.90;;
73359;SDS011;63092;43.582;19.528;2023-07-16T09:21:51;15.73;;;13.05;;
73359;SDS011;63092;43.582;19.528;2023-07-16T09:24:18;17.38;;;12.70;;
73359;SDS011;63092;43.582;19.528;2023-07-16T09:26:47;15.68;;;12.40;;
73359;SDS011;63092;43.582;19.528;2023-07-16T09:29:15;15.00;;;12.57;;
73359;SDS011;63092;43.582;19.528;2023-07-16T09:32:14;19.95;;;13.45;;
73359;SDS011;63092;43.582;19.528;2023-07-16T09:34:33;16.17;;;13.40;;
73359;SDS011;63092;43.582;19.528;2023-07-16T09:37:00;16.70;;;13.18;;
73359;SDS011;63092;43.582;19.528;2023-07-16T09:39:27;14.45;;;12.80;;
73359;SDS011;63092;43.582;19.528;2023-07-16T09:41:53;14.25;;;12.60;;
73359;SDS011;63092;43.582;19.528;2023-07-16T09:44:22;13.07;;;11.65;;
73359;SDS011;63092;43.582;19.528;2023-07-16T09:46:48;16.85;;;14.38;;
73359;SDS011;63092;43.582;19.528;2023-07-16T09:49:14;14.38;;;11.93;;
73359;SDS011;63092;43.582;19.528;2023-07-16T09:51:40;15.43;;;12.55;;
73359;SDS011;63092;43.582;19.528;2023-07-16T09:54:08;14.23;;;12.73;;
73359;SDS011;63092;43.582;19.528;2023-07-16T09:56:44;15.55;;;12.73;;
73359;SDS011;63092;43.582;19.528;2023-07-16T09:59:14;13.63;;;11.77;;
73359;SDS011;63092;43.582;19.528;2023-07-16T10:01:43;14.00;;;12.52;;
73359;SDS011;63092;43.582;19.528;2023-07-16T10:04:16;15.25;;;13.13;;
73359;SDS011;63092;43.582;19.528;2023-07-16T10:12:14;14.73;;;12.10;;
73359;SDS011;63092;43.582;19.528;2023-07-16T10:14:47;15.55;;;12.50;;
73359;SDS011;63092;43.582;19.528;2023-07-16T10:17:21;14.13;;;12.43;;
73359;SDS011;63092;43.582;19.528;2023-07-16T10:25:00;14.20;;;11.63;;
73359;SDS011;63092;43.582;19.528;2023-07-16T10:27:31;13.32;;;10.63;;
73359;SDS011;63092;43.582;19.528;2023-07-16T10:29:59;14.45;;;11.68;;
73359;SDS011;63092;43.582;19.528;2023-07-16T10:32:28;15.80;;;10.95;;
73359;SDS011;63092;43.582;19.528;2023-07-16T10:34:55;14.43;;;9.85;;
73359;SDS011;63092;43.582;19.528;2023-07-16T10:37:21;14.40;;;10.15;;
73359;SDS011;63092;43.582;19.528;2023-07-16T10:39:48;12.98;;;10.23;;
73359;SDS011;63092;43.582;19.528;2023-07-16T10:42:18;16.42;;;11.45;;
73359;SDS011;63092;43.582;19.528;2023-07-16T10:44:45;14.88;;;11.82;;
73359;SDS011;63092;43.582;19.528;2023-07-16T10:47:19;14.15;;;12.20;;
73359;SDS011;63092;43.582;19.528;2023-07-16T10:49:48;16.48;;;12.60;;
73359;SDS011;63092;43.582;19.528;2023-07-16T10:52:14;14.00;;;11.95;;
73359;SDS011;63092;43.582;19.528;2023-07-16T10:54:40;14.52;;;13.05;;
73359;SDS011;63092;43.582;19.528;2023-07-16T10:57:06;25.25;;;19.45;;
73359;SDS011;63092;43.582;19.528;2023-07-16T10:59:32;16.52;;;13.38;;
73359;SDS011;63092;43.582;19.528;2023-07-16T11:01:58;15.88;;;14.23;;
73359;SDS011;63092;43.582;19.528;2023-07-16T11:04:24;15.60;;;13.98;;
73359;SDS011;63092;43.582;19.528;2023-07-16T11:06:50;20.38;;;14.20;;
73359;SDS011;63092;43.582;19.528;2023-07-16T11:09:15;15.48;;;13.88;;
73359;SDS011;63092;43.582;19.528;2023-07-16T11:11:42;17.70;;;12.70;;
73359;SDS011;63092;43.582;19.528;2023-07-16T11:14:08;13.02;;;11.63;;
73359;SDS011;63092;43.582;19.528;2023-07-16T11:16:35;12.93;;;11.63;;
73359;SDS011;63092;43.582;19.528;2023-07-16T11:19:04;15.60;;;12.52;;
73359;SDS011;63092;43.582;19.528;2023-07-16T11:21:32;15.15;;;12.13;;
73359;SDS011;63092;43.582;19.528;2023-07-16T11:27:00;13.90;;;11.00;;
73359;SDS011;63092;43.582;19.528;2023-07-16T11:29:26;15.85;;;12.18;;
73359;SDS011;63092;43.582;19.528;2023-07-16T11:31:59;16.08;;;12.40;;
73359;SDS011;63092;43.582;19.528;2023-07-16T11:34:25;17.77;;;13.07;;
73359;SDS011;63092;43.582;19.528;2023-07-16T11:36:51;14.85;;;11.13;;
73359;SDS011;63092;43.582;19.528;2023-07-16T11:39:17;11.30;;;10.13;;
73359;SDS011;63092;43.582;19.528;2023-07-16T11:41:53;13.25;;;10.77;;
73359;SDS011;63092;43.582;19.528;2023-07-16T11:44:20;10.43;;;9.32;;
73359;SDS011;63092;43.582;19.528;2023-07-16T11:46:46;12.30;;;9.95;;
73359;SDS011;63092;43.582;19.528;2023-07-16T11:49:12;14.27;;;10.73;;
73359;SDS011;63092;43.582;19.528;2023-07-16T11:51:38;14.57;;;11.85;;
73359;SDS011;63092;43.582;19.528;2023-07-16T11:54:03;12.95;;;11.65;;
73359;SDS011;63092;43.582;19.528;2023-07-16T11:56:29;12.20;;;11.00;;
73359;SDS011;63092;43.582;19.528;2023-07-16T11:58:55;14.25;;;11.60;;
73359;SDS011;63092;43.582;19.528;2023-07-16T12:01:20;13.45;;;11.23;;
73359;SDS011;63092;43.582;19.528;2023-07-16T12:03:46;11.85;;;9.95;;
73359;SDS011;63092;43.582;19.528;2023-07-16T12:06:12;11.85;;;9.13;;
73359;SDS011;63092;43.582;19.528;2023-07-16T12:08:37;13.52;;;9.48;;
73359;SDS011;63092;43.582;19.528;2023-07-16T12:11:03;9.75;;;8.45;;
73359;SDS011;63092;43.582;19.528;2023-07-16T12:13:29;9.48;;;7.90;;
73359;SDS011;63092;43.582;19.528;2023-07-16T12:15:54;8.63;;;7.72;;
73359;SDS011;63092;43.582;19.528;2023-07-16T12:18:20;9.55;;;7.82;;
73359;SDS011;63092;43.582;19.528;2023-07-16T12:20:46;10.82;;;8.02;;
73359;SDS011;63092;43.582;19.528;2023-07-16T12:23:12;12.98;;;10.07;;
73359;SDS011;63092;43.582;19.528;2023-07-16T12:25:38;9.55;;;8.13;;
73359;SDS011;63092;43.582;19.528;2023-07-16T12:28:03;8.40;;;7.50;;
73359;SDS011;63092;43.582;19.528;2023-07-16T12:30:29;8.80;;;7.07;;
73359;SDS011;63092;43.582;19.528;2023-07-16T12:32:55;8.18;;;6.22;;
73359;SDS011;63092;43.582;19.528;2023-07-16T12:35:21;10.15;;;7.32;;
73359;SDS011;63092;43.582;19.528;2023-07-16T12:37:47;9.23;;;7.13;;
73359;SDS011;63092;43.582;19.528;2023-07-16T12:40:12;11.57;;;7.55;;
73359;SDS011;63092;43.582;19.528;2023-07-16T12:42:38;8.02;;;6.57;;
73359;SDS011;63092;43.582;19.528;2023-07-16T12:45:04;9.88;;;7.07;;
73359;SDS011;63092;43.582;19.528;2023-07-16T12:47:30;7.78;;;6.88;;
73359;SDS011;63092;43.582;19.528;2023-07-16T12:49:57;14.32;;;7.10;;
73359;SDS011;63092;43.582;19.528;2023-07-16T12:52:22;9.52;;;7.43;;
73359;SDS011;63092;43.582;19.528;2023-07-16T12:54:48;13.43;;;12.00;;
73359;SDS011;63092;43.582;19.528;2023-07-16T12:57:14;9.10;;;7.65;;
73359;SDS011;63092;43.582;19.528;2023-07-16T12:59:40;7.30;;;5.80;;
73359;SDS011;63092;43.582;19.528;2023-07-16T13:02:06;7.60;;;6.65;;
73359;SDS011;63092;43.582;19.528;2023-07-16T13:04:32;8.30;;;6.40;;
73359;SDS011;63092;43.582;19.528;2023-07-16T13:06:57;11.20;;;6.72;;
73359;SDS011;63092;43.582;19.528;2023-07-16T13:09:23;8.00;;;6.72;;
73359;SDS011;63092;43.582;19.528;2023-07-16T13:11:49;9.93;;;6.60;;
73359;SDS011;63092;43.582;19.528;2023-07-16T13:14:16;7.85;;;6.18;;
73359;SDS011;63092;43.582;19.528;2023-07-16T13:16:42;7.53;;;6.43;;
73359;SDS011;63092;43.582;19.528;2023-07-16T13:19:08;8.07;;;7.20;;
73359;SDS011;63092;43.582;19.528;2023-07-16T13:21:34;17.55;;;14.52;;
73359;SDS011;63092;43.582;19.528;2023-07-16T13:23:59;8.13;;;7.00;;
73359;SDS011;63092;43.582;19.528;2023-07-16T13:26:25;8.18;;;6.18;;
73359;SDS011;63092;43.582;19.528;2023-07-16T13:28:51;10.60;;;6.97;;
73359;SDS011;63092;43.582;19.528;2023-07-16T13:31:17;6.97;;;5.80;;
73359;SDS011;63092;43.582;19.528;2023-07-16T13:33:43;7.35;;;5.93;;
73359;SDS011;63092;43.582;19.528;2023-07-16T13:36:09;8.32;;;6.20;;
73359;SDS011;63092;43.582;19.528;2023-07-16T13:38:34;8.57;;;6.57;;
73359;SDS011;63092;43.582;19.528;2023-07-16T13:41:00;8.10;;;6.38;;
73359;SDS011;63092;43.582;19.528;2023-07-16T13:43:26;7.88;;;6.35;;
73359;SDS011;63092;43.582;19.528;2023-07-16T13:45:51;7.07;;;6.05;;
73359;SDS011;63092;43.582;19.528;2023-07-16T13:48:17;6.30;;;5.50;;
73359;SDS011;63092;43.582;19.528;2023-07-16T13:50:43;7.80;;;5.63;;
73359;SDS011;63092;43.582;19.528;2023-07-16T13:53:08;7.50;;;5.57;;
73359;SDS011;63092;43.582;19.528;2023-07-16T13:55:34;6.85;;;5.50;;
73359;SDS011;63092;43.582;19.528;2023-07-16T13:58:00;6.43;;;5.30;;
73359;SDS011;63092;43.582;19.528;2023-07-16T14:00:25;7.70;;;6.10;;
73359;SDS011;63092;43.582;19.528;2023-07-16T14:02:51;6.25;;;5.03;;
73359;SDS011;63092;43.582;19.528;2023-07-16T14:05:17;8.25;;;6.68;;
73359;SDS011;63092;43.582;19.528;2023-07-16T14:07:44;8.15;;;5.80;;
73359;SDS011;63092;43.582;19.528;2023-07-16T14:10:10;10.00;;;5.88;;
73359;SDS011;63092;43.582;19.528;2023-07-16T14:12:36;12.27;;;9.43;;
73359;SDS011;63092;43.582;19.528;2023-07-16T14:15:01;6.88;;;5.30;;
73359;SDS011;63092;43.582;19.528;2023-07-16T14:17:27;20.27;;;17.58;;
73359;SDS011;63092;43.582;19.528;2023-07-16T14:19:53;9.27;;;7.32;;
73359;SDS011;63092;43.582;19.528;2023-07-16T14:22:19;28.02;;;22.08;;
73359;SDS011;63092;43.582;19.528;2023-07-16T14:24:44;13.27;;;6.80;;
73359;SDS011;63092;43.582;19.528;2023-07-16T14:27:15;6.03;;;4.88;;
73359;SDS011;63092;43.582;19.528;2023-07-16T14:29:42;11.10;;;9.90;;
73359;SDS011;63092;43.582;19.528;2023-07-16T14:32:08;6.57;;;5.50;;
73359;SDS011;63092;43.582;19.528;2023-07-16T14:34:34;6.10;;;4.57;;